sensor_id;sensor_type;location;lat;lon;timestamp;P1;durP1;ratioP1;P2;durP2;ratioP2
10311;SDS011;5201;48.776;9.128;2022-08-01T00:00:21;0.90;;;0.77;;
10311;SDS011;5201;48.776;9.128;2022-08-01T00:02:47;1.10;;;0.63;;
10311;SDS011;5201;48.776;9.128;2022-08-01T00:05:12;1.00;;;0.90;;
10311;SDS011;5201;48.776;9.128;2022-08-01T00:07:38;1.02;;;0.80;;
10311;SDS011;5201;48.776;9.128;2022-08-01T00:10:05;2.15;;;1.08;;
10311;SDS011;5201;48.776;9.128;2022-08-01T00:12:32;1.70;;;0.82;;
10311;SDS011;5201;48.776;9.128;2022-08-01T00:14:58;0.77;;;0.77;;
10311;SDS011;5201;48.776;9.128;2022-08-01T00:17:24;1.50;;;0.90;;
10311;SDS011;5201;48.776;9.128;2022-08-01T00:19:49;2.53;;;0.90;;
10311;SDS011;5201;48.776;9.128;2022-08-01T00:22:15;0.80;;;0.80;;
10311;SDS011;5201;48.776;9.128;2022-08-01T00:24:41;0.70;;;0.70;;
10311;SDS011;5201;48.776;9.128;2022-08-01T00:27:07;1.00;;;0.85;;
10311;SDS011;5201;48.776;9.128;2022-08-01T00:29:32;1.90;;;0.95;;
10311;SDS011;5201;48.776;9.128;2022-08-01T00:31:58;0.85;;;0.85;;
10311;SDS011;5201;48.776;9.128;2022-08-01T00:34:23;2.45;;;1.20;;
10311;SDS011;5201;48.776;9.128;2022-08-01T00:36:49;1.33;;;0.80;;
10311;SDS011;5201;48.776;9.128;2022-08-01T00:39:15;0.73;;;0.73;;
10311;SDS011;5201;48.776;9.128;2022-08-01T00:41:40;1.05;;;0.95;;
10311;SDS011;5201;48.776;9.128;2022-08-01T00:44:06;0.90;;;0.90;;
10311;SDS011;5201;48.776;9.128;2022-08-01T00:46:32;1.05;;;0.75;;
10311;SDS011;5201;48.776;9.128;2022-08-01T00:48:58;0.82;;;0.80;;
10311;SDS011;5201;48.776;9.128;2022-08-01T00:51:24;1.67;;;1.00;;
10311;SDS011;5201;48.776;9.128;2022-08-01T00:53:51;1.27;;;0.80;;
10311;SDS011;5201;48.776;9.128;2022-08-01T00:56:17;1.20;;;1.05;;
10311;SDS011;5201;48.776;9.128;2022-08-01T00:58:43;1.88;;;1.00;;
10311;SDS011;5201;48.776;9.128;2022-08-01T01:01:09;0.70;;;0.70;;
10311;SDS011;5201;48.776;9.128;2022-08-01T01:03:35;2.15;;;1.20;;
10311;SDS011;5201;48.776;9.128;2022-08-01T01:06:13;1.25;;;0.95;;
10311;SDS011;5201;48.776;9.128;2022-08-01T01:12:03;0.90;;;0.90;;
10311;SDS011;5201;48.776;9.128;2022-08-01T01:14:57;4.05;;;1.00;;
10311;SDS011;5201;48.776;9.128;2022-08-01T01:17:44;5.20;;;1.00;;
10311;SDS011;5201;48.776;9.128;2022-08-01T01:20:18;1.63;;;1.13;;
10311;SDS011;5201;48.776;9.128;2022-08-01T01:30:51;0.82;;;0.82;;
10311;SDS011;5201;48.776;9.128;2022-08-01T01:33:20;3.78;;;1.08;;
10311;SDS011;5201;48.776;9.128;2022-08-01T01:35:49;2.42;;;0.90;;
10311;SDS011;5201;48.776;9.128;2022-08-01T01:38:20;1.83;;;1.10;;
10311;SDS011;5201;48.776;9.128;2022-08-01T01:40:48;1.52;;;1.00;;
10311;SDS011;5201;48.776;9.128;2022-08-01T01:43:17;1.08;;;0.98;;
10311;SDS011;5201;48.776;9.128;2022-08-01T01:45:47;0.80;;;0.70;;
10311;SDS011;5201;48.776;9.128;2022-08-01T01:48:16;1.00;;;0.90;;
10311;SDS011;5201;48.776;9.128;2022-08-01T01:50:45;1.00;;;0.85;;
10311;SDS011;5201;48.776;9.128;2022-08-01T01:53:12;1.10;;;1.00;;
10311;SDS011;5201;48.776;9.128;2022-08-01T01:55:41;1.70;;;0.98;;
10311;SDS011;5201;48.776;9.128;2022-08-01T01:58:09;2.08;;;1.10;;
10311;SDS011;5201;48.776;9.128;2022-08-01T02:00:39;2.35;;;1.27;;
10311;SDS011;5201;48.776;9.128;2022-08-01T02:03:06;1.83;;;0.90;;
10311;SDS011;5201;48.776;9.128;2022-08-01T02:05:34;0.77;;;0.77;;
10311;SDS011;5201;48.776;9.128;2022-08-01T02:08:02;0.88;;;0.88;;
10311;SDS011;5201;48.776;9.128;2022-08-01T02:10:29;2.58;;;1.10;;
10311;SDS011;5201;48.776;9.128;2022-08-01T02:12:57;1.15;;;0.88;;
10311;SDS011;5201;48.776;9.128;2022-08-01T02:15:24;1.75;;;1.20;;
10311;SDS011;5201;48.776;9.128;2022-08-01T02:17:53;0.90;;;0.90;;
10311;SDS011;5201;48.776;9.128;2022-08-01T02:20:21;0.90;;;0.90;;
10311;SDS011;5201;48.776;9.128;2022-08-01T02:22:48;1.20;;;1.00;;
10311;SDS011;5201;48.776;9.128;2022-08-01T02:25:22;1.38;;;0.85;;
10311;SDS011;5201;48.776;9.128;2022-08-01T02:27:54;1.55;;;1.00;;
10311;SDS011;5201;48.776;9.128;2022-08-01T02:30:26;0.95;;;0.90;;
10311;SDS011;5201;48.776;9.128;2022-08-01T02:33:08;1.13;;;0.93;;
10311;SDS011;5201;48.776;9.128;2022-08-01T02:35:38;1.27;;;0.98;;
10311;SDS011;5201;48.776;9.128;2022-08-01T02:38:08;1.30;;;1.10;;
10311;SDS011;5201;48.776;9.128;2022-08-01T02:40:37;1.27;;;0.85;;
10311;SDS011;5201;48.776;9.128;2022-08-01T02:43:06;2.00;;;1.20;;
10311;SDS011;5201;48.776;9.128;2022-08-01T02:45:34;1.77;;;0.88;;
10311;SDS011;5201;48.776;9.128;2022-08-01T02:48:09;1.08;;;0.82;;
10311;SDS011;5201;48.776;9.128;2022-08-01T02:50:37;1.00;;;1.00;;
10311;SDS011;5201;48.776;9.128;2022-08-01T02:53:07;1.55;;;0.98;;
10311;SDS011;5201;48.776;9.128;2022-08-01T02:55:35;1.20;;;1.02;;
10311;SDS011;5201;48.776;9.128;2022-08-01T02:58:03;3.10;;;1.10;;
10311;SDS011;5201;48.776;9.128;2022-08-01T03:00:31;1.65;;;1.10;;
10311;SDS011;5201;48.776;9.128;2022-08-01T03:02:58;2.35;;;1.02;;
10311;SDS011;5201;48.776;9.128;2022-08-01T03:05:26;1.25;;;1.00;;
10311;SDS011;5201;48.776;9.128;2022-08-01T03:07:54;1.67;;;1.35;;
10311;SDS011;5201;48.776;9.128;2022-08-01T03:10:21;1.77;;;0.80;;
10311;SDS011;5201;48.776;9.128;2022-08-01T03:12:49;1.20;;;0.98;;
10311;SDS011;5201;48.776;9.128;2022-08-01T03:15:16;1.33;;;0.90;;
10311;SDS011;5201;48.776;9.128;2022-08-01T03:17:44;1.10;;;1.00;;
10311;SDS011;5201;48.776;9.128;2022-08-01T03:20:13;1.55;;;1.45;;
10311;SDS011;5201;48.776;9.128;2022-08-01T03:22:40;1.30;;;1.20;;
10311;SDS011;5201;48.776;9.128;2022-08-01T03:25:08;1.00;;;0.90;;
10311;SDS011;5201;48.776;9.128;2022-08-01T03:27:37;1.15;;;1.10;;
10311;SDS011;5201;48.776;9.128;2022-08-01T03:30:05;2.05;;;1.00;;
10311;SDS011;5201;48.776;9.128;2022-08-01T03:32:31;1.00;;;0.90;;
10311;SDS011;5201;48.776;9.128;2022-08-01T03:34:57;0.98;;;0.73;;
10311;SDS011;5201;48.776;9.128;2022-08-01T03:39:54;1.20;;;1.10;;
10311;SDS011;5201;48.776;9.128;2022-08-01T03:42:24;0.90;;;0.85;;
10311;SDS011;5201;48.776;9.128;2022-08-01T03:44:58;1.77;;;1.05;;
10311;SDS011;5201;48.776;9.128;2022-08-01T03:47:32;0.90;;;0.90;;
10311;SDS011;5201;48.776;9.128;2022-08-01T03:50:00;2.42;;;0.98;;
10311;SDS011;5201;48.776;9.128;2022-08-01T03:52:28;2.42;;;1.00;;
10311;SDS011;5201;48.776;9.128;2022-08-01T03:54:56;0.88;;;0.88;;
10311;SDS011;5201;48.776;9.128;2022-08-01T03:57:24;1.52;;;0.77;;
10311;SDS011;5201;48.776;9.128;2022-08-01T03:59:55;2.75;;;0.85;;
10311;SDS011;5201;48.776;9.128;2022-08-01T04:02:22;2.50;;;1.08;;
10311;SDS011;5201;48.776;9.128;2022-08-01T04:04:48;1.83;;;1.00;;
10311;SDS011;5201;48.776;9.128;2022-08-01T04:07:28;2.15;;;0.70;;
10311;SDS011;5201;48.776;9.128;2022-08-01T04:09:55;1.35;;;0.90;;
10311;SDS011;5201;48.776;9.128;2022-08-01T04:12:21;1.40;;;1.20;;
10311;SDS011;5201;48.776;9.128;2022-08-01T04:14:47;1.73;;;0.93;;
10311;SDS011;5201;48.776;9.128;2022-08-01T04:17:14;1.60;;;1.08;;
10311;SDS011;5201;48.776;9.128;2022-08-01T04:19:42;0.88;;;0.88;;
10311;SDS011;5201;48.776;9.128;2022-08-01T04:22:09;1.40;;;1.00;;
10311;SDS011;5201;48.776;9.128;2022-08-01T04:24:36;2.42;;;0.82;;
10311;SDS011;5201;48.776;9.128;2022-08-01T04:27:03;1.50;;;0.88;;
10311;SDS011;5201;48.776;9.128;2022-08-01T04:29:33;2.55;;;1.00;;
10311;SDS011;5201;48.776;9.128;2022-08-01T04:32:00;0.85;;;0.85;;
10311;SDS011;5201;48.776;9.128;2022-08-01T04:34:27;1.73;;;0.90;;
10311;SDS011;5201;48.776;9.128;2022-08-01T04:36:55;0.88;;;0.80;;
10311;SDS011;5201;48.776;9.128;2022-08-01T04:39:26;1.00;;;0.90;;
10311;SDS011;5201;48.776;9.128;2022-08-01T04:41:55;0.85;;;0.70;;
10311;SDS011;5201;48.776;9.128;2022-08-01T04:44:28;2.10;;;0.95;;
10311;SDS011;5201;48.776;9.128;2022-08-01T04:46:57;2.17;;;0.80;;
10311;SDS011;5201;48.776;9.128;2022-08-01T04:49:29;0.70;;;0.70;;
10311;SDS011;5201;48.776;9.128;2022-08-01T04:51:57;1.67;;;0.90;;
10311;SDS011;5201;48.776;9.128;2022-08-01T04:54:25;1.65;;;0.80;;
10311;SDS011;5201;48.776;9.128;2022-08-01T04:56:55;4.25;;;0.80;;
10311;SDS011;5201;48.776;9.128;2022-08-01T04:59:27;2.25;;;0.90;;
10311;SDS011;5201;48.776;9.128;2022-08-01T05:02:13;0.85;;;0.80;;
10311;SDS011;5201;48.776;9.128;2022-08-01T05:04:40;0.82;;;0.77;;
10311;SDS011;5201;48.776;9.128;2022-08-01T05:07:07;1.65;;;0.90;;
10311;SDS011;5201;48.776;9.128;2022-08-01T05:09:34;0.93;;;0.85;;
10311;SDS011;5201;48.776;9.128;2022-08-01T05:12:04;1.65;;;0.98;;
10311;SDS011;5201;48.776;9.128;2022-08-01T05:14:30;2.15;;;0.90;;
10311;SDS011;5201;48.776;9.128;2022-08-01T05:17:06;1.77;;;0.93;;
10311;SDS011;5201;48.776;9.128;2022-08-01T05:19:33;1.63;;;1.00;;
10311;SDS011;5201;48.776;9.128;2022-08-01T05:21:59;1.40;;;0.73;;
10311;SDS011;5201;48.776;9.128;2022-08-01T05:24:29;1.52;;;0.77;;
10311;SDS011;5201;48.776;9.128;2022-08-01T05:26:55;1.20;;;0.95;;
10311;SDS011;5201;48.776;9.128;2022-08-01T05:29:22;1.52;;;0.90;;
10311;SDS011;5201;48.776;9.128;2022-08-01T05:31:48;1.17;;;0.80;;
10311;SDS011;5201;48.776;9.128;2022-08-01T05:34:13;1.20;;;0.82;;
10311;SDS011;5201;48.776;9.128;2022-08-01T05:36:39;0.95;;;0.80;;
10311;SDS011;5201;48.776;9.128;2022-08-01T05:39:05;1.55;;;0.60;;
10311;SDS011;5201;48.776;9.128;2022-08-01T05:41:30;0.70;;;0.70;;
10311;SDS011;5201;48.776;9.128;2022-08-01T05:43:56;1.30;;;0.80;;
10311;SDS011;5201;48.776;9.128;2022-08-01T05:46:22;1.25;;;1.00;;
10311;SDS011;5201;48.776;9.128;2022-08-01T05:48:47;0.70;;;0.70;;
10311;SDS011;5201;48.776;9.128;2022-08-01T05:51:13;0.60;;;0.60;;
10311;SDS011;5201;48.776;9.128;2022-08-01T05:53:38;3.72;;;0.98;;
10311;SDS011;5201;48.776;9.128;2022-08-01T05:56:04;1.60;;;0.70;;
10311;SDS011;5201;48.776;9.128;2022-08-01T05:58:30;0.80;;;0.75;;
10311;SDS011;5201;48.776;9.128;2022-08-01T06:00:56;0.90;;;0.80;;
10311;SDS011;5201;48.776;9.128;2022-08-01T06:03:22;1.77;;;0.52;;
10311;SDS011;5201;48.776;9.128;2022-08-01T06:05:48;6.22;;;0.93;;
10311;SDS011;5201;48.776;9.128;2022-08-01T06:08:14;1.00;;;0.65;;
10311;SDS011;5201;48.776;9.128;2022-08-01T06:10:39;0.77;;;0.77;;
10311;SDS011;5201;48.776;9.128;2022-08-01T06:13:05;1.13;;;0.70;;
10311;SDS011;5201;48.776;9.128;2022-08-01T06:15:31;2.05;;;0.63;;
10311;SDS011;5201;48.776;9.128;2022-08-01T06:17:57;0.70;;;0.70;;
10311;SDS011;5201;48.776;9.128;2022-08-01T06:20:23;3.13;;;0.80;;
10311;SDS011;5201;48.776;9.128;2022-08-01T06:22:49;1.75;;;0.60;;
10311;SDS011;5201;48.776;9.128;2022-08-01T06:25:16;0.77;;;0.70;;
10311;SDS011;5201;48.776;9.128;2022-08-01T06:27:43;4.25;;;0.65;;
10311;SDS011;5201;48.776;9.128;2022-08-01T06:30:09;1.10;;;0.65;;
10311;SDS011;5201;48.776;9.128;2022-08-01T06:32:35;2.35;;;0.80;;
10311;SDS011;5201;48.776;9.128;2022-08-01T06:35:00;0.98;;;0.63;;
10311;SDS011;5201;48.776;9.128;2022-08-01T06:37:29;2.15;;;0.60;;
10311;SDS011;5201;48.776;9.128;2022-08-01T06:39:56;1.30;;;0.80;;
10311;SDS011;5201;48.776;9.128;2022-08-01T06:42:28;4.22;;;0.70;;
10311;SDS011;5201;48.776;9.128;2022-08-01T06:44:56;1.15;;;0.40;;
10311;SDS011;5201;48.776;9.128;2022-08-01T06:47:22;1.77;;;0.50;;
10311;SDS011;5201;48.776;9.128;2022-08-01T06:49:48;2.25;;;0.60;;
10311;SDS011;5201;48.776;9.128;2022-08-01T06:52:13;1.23;;;0.50;;
10311;SDS011;5201;48.776;9.128;2022-08-01T06:54:39;0.32;;;0.30;;
10311;SDS011;5201;48.776;9.128;2022-08-01T06:57:05;0.75;;;0.47;;
10311;SDS011;5201;48.776;9.128;2022-08-01T06:59:31;3.13;;;0.55;;
10311;SDS011;5201;48.776;9.128;2022-08-01T07:01:57;1.42;;;0.40;;
10311;SDS011;5201;48.776;9.128;2022-08-01T07:04:22;0.63;;;0.43;;
10311;SDS011;5201;48.776;9.128;2022-08-01T07:06:48;0.88;;;0.60;;
10311;SDS011;5201;48.776;9.128;2022-08-01T07:09:13;0.40;;;0.40;;
10311;SDS011;5201;48.776;9.128;2022-08-01T07:11:39;0.63;;;0.45;;
10311;SDS011;5201;48.776;9.128;2022-08-01T07:14:04;1.15;;;0.50;;
10311;SDS011;5201;48.776;9.128;2022-08-01T07:16:30;1.85;;;0.47;;
10311;SDS011;5201;48.776;9.128;2022-08-01T07:18:56;0.52;;;0.52;;
10311;SDS011;5201;48.776;9.128;2022-08-01T07:21:21;0.55;;;0.40;;
10311;SDS011;5201;48.776;9.128;2022-08-01T07:23:47;0.50;;;0.35;;
10311;SDS011;5201;48.776;9.128;2022-08-01T07:26:12;0.40;;;0.40;;
10311;SDS011;5201;48.776;9.128;2022-08-01T07:28:38;0.40;;;0.40;;
10311;SDS011;5201;48.776;9.128;2022-08-01T07:31:04;0.38;;;0.38;;
10311;SDS011;5201;48.776;9.128;2022-08-01T07:33:30;0.57;;;0.52;;
10311;SDS011;5201;48.776;9.128;2022-08-01T07:35:55;1.77;;;0.52;;
10311;SDS011;5201;48.776;9.128;2022-08-01T07:38:21;0.40;;;0.40;;
10311;SDS011;5201;48.776;9.128;2022-08-01T07:40:46;1.85;;;0.55;;
10311;SDS011;5201;48.776;9.128;2022-08-01T07:43:12;0.88;;;0.70;;
10311;SDS011;5201;48.776;9.128;2022-08-01T07:45:38;0.88;;;0.40;;
10311;SDS011;5201;48.776;9.128;2022-08-01T07:48:06;2.45;;;0.50;;
10311;SDS011;5201;48.776;9.128;2022-08-01T07:50:32;1.10;;;0.60;;
10311;SDS011;5201;48.776;9.128;2022-08-01T07:52:59;1.33;;;0.68;;
10311;SDS011;5201;48.776;9.128;2022-08-01T07:55:25;0.40;;;0.40;;
10311;SDS011;5201;48.776;9.128;2022-08-01T07:57:51;3.35;;;0.70;;
10311;SDS011;5201;48.776;9.128;2022-08-01T08:00:17;0.80;;;0.70;;
10311;SDS011;5201;48.776;9.128;2022-08-01T08:02:43;0.60;;;0.60;;
10311;SDS011;5201;48.776;9.128;2022-08-01T08:05:10;0.60;;;0.47;;
10311;SDS011;5201;48.776;9.128;2022-08-01T08:07:36;0.85;;;0.65;;
10311;SDS011;5201;48.776;9.128;2022-08-01T08:10:04;1.38;;;0.70;;
10311;SDS011;5201;48.776;9.128;2022-08-01T08:12:30;0.52;;;0.52;;
10311;SDS011;5201;48.776;9.128;2022-08-01T08:14:56;1.25;;;0.82;;
10311;SDS011;5201;48.776;9.128;2022-08-01T08:17:24;0.90;;;0.68;;
10311;SDS011;5201;48.776;9.128;2022-08-01T08:19:50;3.95;;;0.90;;
10311;SDS011;5201;48.776;9.128;2022-08-01T08:22:16;0.70;;;0.70;;
10311;SDS011;5201;48.776;9.128;2022-08-01T08:24:42;1.00;;;0.70;;
10311;SDS011;5201;48.776;9.128;2022-08-01T08:27:08;0.55;;;0.55;;
10311;SDS011;5201;48.776;9.128;2022-08-01T08:29:34;0.88;;;0.57;;
10311;SDS011;5201;48.776;9.128;2022-08-01T08:32:00;0.60;;;0.60;;
10311;SDS011;5201;48.776;9.128;2022-08-01T08:34:27;0.60;;;0.60;;
10311;SDS011;5201;48.776;9.128;2022-08-01T08:36:54;2.22;;;0.80;;
10311;SDS011;5201;48.776;9.128;2022-08-01T08:39:21;1.90;;;0.85;;
10311;SDS011;5201;48.776;9.128;2022-08-01T08:41:47;0.98;;;0.90;;
10311;SDS011;5201;48.776;9.128;2022-08-01T08:44:13;2.63;;;1.10;;
10311;SDS011;5201;48.776;9.128;2022-08-01T08:46:46;1.50;;;1.08;;
10311;SDS011;5201;48.776;9.128;2022-08-01T08:49:15;1.65;;;1.02;;
10311;SDS011;5201;48.776;9.128;2022-08-01T08:51:43;1.38;;;1.00;;
10311;SDS011;5201;48.776;9.128;2022-08-01T08:54:12;1.55;;;0.80;;
10311;SDS011;5201;48.776;9.128;2022-08-01T08:56:39;3.63;;;1.20;;
10311;SDS011;5201;48.776;9.128;2022-08-01T08:59:06;2.72;;;1.33;;
10311;SDS011;5201;48.776;9.128;2022-08-01T09:01:32;2.15;;;1.50;;
10311;SDS011;5201;48.776;9.128;2022-08-01T09:03:59;1.10;;;0.90;;
10311;SDS011;5201;48.776;9.128;2022-08-01T09:06:26;2.55;;;1.42;;
10311;SDS011;5201;48.776;9.128;2022-08-01T09:08:53;1.67;;;1.33;;
10311;SDS011;5201;48.776;9.128;2022-08-01T09:11:18;1.48;;;1.13;;
10311;SDS011;5201;48.776;9.128;2022-08-01T09:16:29;2.75;;;1.80;;
10311;SDS011;5201;48.776;9.128;2022-08-01T09:19:06;5.13;;;1.70;;
10311;SDS011;5201;48.776;9.128;2022-08-01T09:21:36;2.47;;;1.60;;
10311;SDS011;5201;48.776;9.128;2022-08-01T09:24:02;3.13;;;1.70;;
10311;SDS011;5201;48.776;9.128;2022-08-01T09:26:31;2.05;;;1.80;;
10311;SDS011;5201;48.776;9.128;2022-08-01T09:28:59;3.10;;;2.28;;
10311;SDS011;5201;48.776;9.128;2022-08-01T09:31:38;5.53;;;2.13;;
10311;SDS011;5201;48.776;9.128;2022-08-01T09:34:05;2.92;;;2.13;;
10311;SDS011;5201;48.776;9.128;2022-08-01T09:39:26;3.33;;;2.30;;
10311;SDS011;5201;48.776;9.128;2022-08-01T09:41:53;4.03;;;2.22;;
10311;SDS011;5201;48.776;9.128;2022-08-01T09:44:26;3.13;;;1.95;;
10311;SDS011;5201;48.776;9.128;2022-08-01T09:47:05;4.07;;;1.85;;
10311;SDS011;5201;48.776;9.128;2022-08-01T09:49:32;2.22;;;1.80;;
10311;SDS011;5201;48.776;9.128;2022-08-01T09:52:00;2.78;;;1.98;;
10311;SDS011;5201;48.776;9.128;2022-08-01T09:55:06;2.90;;;2.50;;
10311;SDS011;5201;48.776;9.128;2022-08-01T09:57:32;2.60;;;1.90;;
10311;SDS011;5201;48.776;9.128;2022-08-01T09:59:59;3.08;;;1.85;;
10311;SDS011;5201;48.776;9.128;2022-08-01T10:02:35;1.75;;;1.55;;
10311;SDS011;5201;48.776;9.128;2022-08-01T10:05:03;2.78;;;2.03;;
10311;SDS011;5201;48.776;9.128;2022-08-01T10:07:31;1.65;;;1.55;;
10311;SDS011;5201;48.776;9.128;2022-08-01T10:10:08;2.03;;;1.63;;
10311;SDS011;5201;48.776;9.128;2022-08-01T10:12:38;3.92;;;1.95;;
10311;SDS011;5201;48.776;9.128;2022-08-01T10:15:04;1.85;;;1.75;;
10311;SDS011;5201;48.776;9.128;2022-08-01T10:17:31;3.95;;;2.10;;
10311;SDS011;5201;48.776;9.128;2022-08-01T10:19:58;1.88;;;1.45;;
10311;SDS011;5201;48.776;9.128;2022-08-01T10:22:26;1.67;;;1.55;;
10311;SDS011;5201;48.776;9.128;2022-08-01T10:24:55;1.33;;;1.00;;
10311;SDS011;5201;48.776;9.128;2022-08-01T10:27:22;4.22;;;2.17;;
10311;SDS011;5201;48.776;9.128;2022-08-01T10:32:22;1.63;;;1.20;;
10311;SDS011;5201;48.776;9.128;2022-08-01T10:34:51;2.58;;;1.10;;
10311;SDS011;5201;48.776;9.128;2022-08-01T10:37:17;2.33;;;1.08;;
10311;SDS011;5201;48.776;9.128;2022-08-01T10:39:43;2.38;;;1.42;;
10311;SDS011;5201;48.776;9.128;2022-08-01T10:42:09;2.25;;;1.25;;
10311;SDS011;5201;48.776;9.128;2022-08-01T10:44:36;1.25;;;1.15;;
10311;SDS011;5201;48.776;9.128;2022-08-01T10:47:08;1.35;;;1.25;;
10311;SDS011;5201;48.776;9.128;2022-08-01T10:49:41;1.10;;;1.00;;
10311;SDS011;5201;48.776;9.128;2022-08-01T10:52:15;2.20;;;1.00;;
10311;SDS011;5201;48.776;9.128;2022-08-01T10:54:44;1.55;;;1.10;;
10311;SDS011;5201;48.776;9.128;2022-08-01T10:57:10;2.63;;;1.77;;
10311;SDS011;5201;48.776;9.128;2022-08-01T10:59:47;1.23;;;1.13;;
10311;SDS011;5201;48.776;9.128;2022-08-01T11:02:35;2.35;;;1.30;;
10311;SDS011;5201;48.776;9.128;2022-08-01T11:05:27;1.75;;;1.27;;
10311;SDS011;5201;48.776;9.128;2022-08-01T11:07:52;1.30;;;1.20;;
10311;SDS011;5201;48.776;9.128;2022-08-01T11:13:00;1.35;;;1.17;;
10311;SDS011;5201;48.776;9.128;2022-08-01T11:15:28;1.33;;;1.10;;
10311;SDS011;5201;48.776;9.128;2022-08-01T11:17:54;1.38;;;1.23;;
10311;SDS011;5201;48.776;9.128;2022-08-01T11:20:27;2.78;;;1.00;;
10311;SDS011;5201;48.776;9.128;2022-08-01T11:30:42;1.42;;;0.77;;
10311;SDS011;5201;48.776;9.128;2022-08-01T11:33:09;2.67;;;1.27;;
10311;SDS011;5201;48.776;9.128;2022-08-01T11:35:36;3.03;;;0.90;;
10311;SDS011;5201;48.776;9.128;2022-08-01T11:52:09;1.38;;;1.13;;
10311;SDS011;5201;48.776;9.128;2022-08-01T11:54:43;1.23;;;0.80;;
10311;SDS011;5201;48.776;9.128;2022-08-01T11:57:19;2.85;;;1.23;;
10311;SDS011;5201;48.776;9.128;2022-08-01T11:59:53;1.75;;;0.90;;
10311;SDS011;5201;48.776;9.128;2022-08-01T12:04:52;1.38;;;0.73;;
10311;SDS011;5201;48.776;9.128;2022-08-01T12:07:28;1.00;;;0.85;;
10311;SDS011;5201;48.776;9.128;2022-08-01T12:12:26;1.30;;;0.70;;
10311;SDS011;5201;48.776;9.128;2022-08-01T12:14:53;1.85;;;0.98;;
10311;SDS011;5201;48.776;9.128;2022-08-01T12:17:26;1.38;;;0.82;;
10311;SDS011;5201;48.776;9.128;2022-08-01T12:20:15;1.05;;;0.85;;
10311;SDS011;5201;48.776;9.128;2022-08-01T12:22:44;0.85;;;0.85;;
10311;SDS011;5201;48.776;9.128;2022-08-01T12:25:14;0.65;;;0.63;;
10311;SDS011;5201;48.776;9.128;2022-08-01T12:27:41;2.88;;;1.00;;
10311;SDS011;5201;48.776;9.128;2022-08-01T12:30:12;1.15;;;1.05;;
10311;SDS011;5201;48.776;9.128;2022-08-01T12:32:40;5.10;;;1.40;;
10311;SDS011;5201;48.776;9.128;2022-08-01T12:35:08;1.15;;;1.00;;
10311;SDS011;5201;48.776;9.128;2022-08-01T12:37:43;1.35;;;1.20;;
10311;SDS011;5201;48.776;9.128;2022-08-01T12:42:39;1.55;;;0.88;;
10311;SDS011;5201;48.776;9.128;2022-08-01T12:45:09;1.20;;;0.70;;
10311;SDS011;5201;48.776;9.128;2022-08-01T12:47:40;1.02;;;1.00;;
10311;SDS011;5201;48.776;9.128;2022-08-01T12:50:07;0.85;;;0.80;;
10311;SDS011;5201;48.776;9.128;2022-08-01T12:52:39;2.97;;;0.90;;
10311;SDS011;5201;48.776;9.128;2022-08-01T12:55:09;1.42;;;0.80;;
10311;SDS011;5201;48.776;9.128;2022-08-01T12:57:39;1.02;;;0.80;;
10311;SDS011;5201;48.776;9.128;2022-08-01T13:00:14;0.80;;;0.80;;
10311;SDS011;5201;48.776;9.128;2022-08-01T13:02:50;0.95;;;0.90;;
10311;SDS011;5201;48.776;9.128;2022-08-01T13:05:25;4.35;;;0.90;;
10311;SDS011;5201;48.776;9.128;2022-08-01T13:07:52;2.78;;;0.80;;
10311;SDS011;5201;48.776;9.128;2022-08-01T13:10:25;1.30;;;0.75;;
10311;SDS011;5201;48.776;9.128;2022-08-01T13:12:53;2.88;;;0.75;;
10311;SDS011;5201;48.776;9.128;2022-08-01T13:17:49;2.22;;;0.90;;
10311;SDS011;5201;48.776;9.128;2022-08-01T13:20:22;0.98;;;0.93;;
10311;SDS011;5201;48.776;9.128;2022-08-01T13:22:48;1.42;;;0.80;;
10311;SDS011;5201;48.776;9.128;2022-08-01T13:25:14;1.90;;;0.90;;
10311;SDS011;5201;48.776;9.128;2022-08-01T13:27:40;1.90;;;1.30;;
10311;SDS011;5201;48.776;9.128;2022-08-01T13:30:19;0.82;;;0.70;;
10311;SDS011;5201;48.776;9.128;2022-08-01T13:32:58;3.35;;;1.00;;
10311;SDS011;5201;48.776;9.128;2022-08-01T13:35:25;1.40;;;0.90;;
10311;SDS011;5201;48.776;9.128;2022-08-01T13:37:51;1.10;;;0.77;;
10311;SDS011;5201;48.776;9.128;2022-08-01T13:40:23;0.75;;;0.70;;
10311;SDS011;5201;48.776;9.128;2022-08-01T13:42:51;1.83;;;0.70;;
10311;SDS011;5201;48.776;9.128;2022-08-01T13:45:17;1.02;;;0.90;;
10311;SDS011;5201;48.776;9.128;2022-08-01T13:47:43;0.80;;;0.80;;
10311;SDS011;5201;48.776;9.128;2022-08-01T13:50:08;1.13;;;1.02;;
10311;SDS011;5201;48.776;9.128;2022-08-01T13:52:34;1.67;;;0.90;;
10311;SDS011;5201;48.776;9.128;2022-08-01T13:54:59;3.15;;;1.23;;
10311;SDS011;5201;48.776;9.128;2022-08-01T13:57:26;1.80;;;0.70;;
10311;SDS011;5201;48.776;9.128;2022-08-01T13:59:52;2.90;;;0.80;;
10311;SDS011;5201;48.776;9.128;2022-08-01T14:02:18;1.67;;;0.70;;
10311;SDS011;5201;48.776;9.128;2022-08-01T14:04:44;1.92;;;0.57;;
10311;SDS011;5201;48.776;9.128;2022-08-01T14:07:09;0.70;;;0.70;;
10311;SDS011;5201;48.776;9.128;2022-08-01T14:09:36;1.05;;;0.95;;
10311;SDS011;5201;48.776;9.128;2022-08-01T14:12:01;1.88;;;0.80;;
10311;SDS011;5201;48.776;9.128;2022-08-01T14:14:27;2.45;;;0.70;;
10311;SDS011;5201;48.776;9.128;2022-08-01T14:16:53;2.08;;;0.90;;
10311;SDS011;5201;48.776;9.128;2022-08-01T14:19:19;4.90;;;0.88;;
10311;SDS011;5201;48.776;9.128;2022-08-01T14:21:44;1.73;;;0.70;;
10311;SDS011;5201;48.776;9.128;2022-08-01T14:24:10;3.15;;;1.00;;
10311;SDS011;5201;48.776;9.128;2022-08-01T14:26:35;2.67;;;1.02;;
10311;SDS011;5201;48.776;9.128;2022-08-01T14:29:01;1.38;;;1.08;;
10311;SDS011;5201;48.776;9.128;2022-08-01T14:31:27;0.90;;;0.70;;
10311;SDS011;5201;48.776;9.128;2022-08-01T14:33:54;0.80;;;0.80;;
10311;SDS011;5201;48.776;9.128;2022-08-01T14:36:20;0.90;;;0.60;;
10311;SDS011;5201;48.776;9.128;2022-08-01T14:38:45;1.55;;;0.93;;
10311;SDS011;5201;48.776;9.128;2022-08-01T14:41:11;0.93;;;0.90;;
10311;SDS011;5201;48.776;9.128;2022-08-01T14:43:37;1.58;;;0.88;;
10311;SDS011;5201;48.776;9.128;2022-08-01T14:46:02;3.63;;;0.90;;
10311;SDS011;5201;48.776;9.128;2022-08-01T14:48:28;0.80;;;0.80;;
10311;SDS011;5201;48.776;9.128;2022-08-01T14:50:54;2.05;;;0.75;;
10311;SDS011;5201;48.776;9.128;2022-08-01T14:53:20;0.73;;;0.73;;
10311;SDS011;5201;48.776;9.128;2022-08-01T14:55:46;2.53;;;0.98;;
10311;SDS011;5201;48.776;9.128;2022-08-01T14:58:11;1.55;;;0.80;;
10311;SDS011;5201;48.776;9.128;2022-08-01T15:00:37;0.93;;;0.80;;
10311;SDS011;5201;48.776;9.128;2022-08-01T15:03:03;0.77;;;0.70;;
10311;SDS011;5201;48.776;9.128;2022-08-01T15:05:28;1.80;;;0.63;;
10311;SDS011;5201;48.776;9.128;2022-08-01T15:07:55;2.42;;;0.57;;
10311;SDS011;5201;48.776;9.128;2022-08-01T15:10:21;0.93;;;0.90;;
10311;SDS011;5201;48.776;9.128;2022-08-01T15:12:47;1.00;;;0.80;;
10311;SDS011;5201;48.776;9.128;2022-08-01T15:15:13;0.93;;;0.60;;
10311;SDS011;5201;48.776;9.128;2022-08-01T15:17:39;1.02;;;0.77;;
10311;SDS011;5201;48.776;9.128;2022-08-01T15:20:05;0.60;;;0.60;;
10311;SDS011;5201;48.776;9.128;2022-08-01T15:22:31;0.98;;;0.80;;
10311;SDS011;5201;48.776;9.128;2022-08-01T15:24:58;2.10;;;0.70;;
10311;SDS011;5201;48.776;9.128;2022-08-01T15:27:25;1.73;;;0.70;;
10311;SDS011;5201;48.776;9.128;2022-08-01T15:29:51;2.05;;;0.68;;
10311;SDS011;5201;48.776;9.128;2022-08-01T15:32:18;0.88;;;0.82;;
10311;SDS011;5201;48.776;9.128;2022-08-01T15:34:44;1.40;;;0.75;;
10311;SDS011;5201;48.776;9.128;2022-08-01T15:37:10;1.20;;;0.63;;
10311;SDS011;5201;48.776;9.128;2022-08-01T15:39:36;1.02;;;0.70;;
10311;SDS011;5201;48.776;9.128;2022-08-01T15:42:04;4.20;;;0.88;;
10311;SDS011;5201;48.776;9.128;2022-08-01T15:44:32;1.98;;;1.05;;
10311;SDS011;5201;48.776;9.128;2022-08-01T15:46:58;1.23;;;0.80;;
10311;SDS011;5201;48.776;9.128;2022-08-01T15:49:25;2.08;;;0.70;;
10311;SDS011;5201;48.776;9.128;2022-08-01T15:51:51;0.70;;;0.55;;
10311;SDS011;5201;48.776;9.128;2022-08-01T15:54:17;0.95;;;0.80;;
10311;SDS011;5201;48.776;9.128;2022-08-01T15:56:43;4.30;;;0.80;;
10311;SDS011;5201;48.776;9.128;2022-08-01T15:59:09;3.72;;;0.80;;
10311;SDS011;5201;48.776;9.128;2022-08-01T16:01:34;0.70;;;0.70;;